Time;durP1;ratioP1;P1;durP2;ratioP2;P2;SDS_P1;SDS_P2;PMS_P1;PMS_P2;Temp;Humidity;BMP_temperature;BMP_pressure;BME280_temperature;BME280_humidity;BME280_pressure;Samples;Min_cycle;Max_cycle;Signal;HPM_P1;HPM_P2
2024/03/03 00:02:32;;;;;;;84.87;44.27;;;;;;;;;;6315228;28;24435;-83
2024/03/03 00:05:34;;;;;;;30.02;19.98;;;;;;;;;;6321349;28;24479;-85
2024/03/03 00:08:35;;;;;;;66.55;34.75;;;;;;;;;;6323343;28;24449;-83
2024/03/03 00:11:37;;;;;;;38.88;25.00;;;;;;;;;;6320994;28;24452;-85
2024/03/03 00:14:41;;;;;;;27.20;18.95;;;;;;;;;;6316250;28;24421;-84
2024/03/03 00:17:43;;;;;;;28.75;19.65;;;;;;;;;;6322525;28;24425;-83
2024/03/03 00:20:45;;;;;;;45.47;29.58;;;;;;;;;;6324392;28;24424;-82
2024/03/03 00:23:47;;;;;;;18.48;13.35;;;;;;;;;;6328859;28;24809;-83
2024/03/03 00:26:49;;;;;;;17.77;13.73;;;;;;;;;;6324037;28;24427;-84
2024/03/03 00:29:52;;;;;;;19.23;13.65;;;;;;;;;;6323299;28;24414;-84
2024/03/03 00:32:54;;;;;;;17.50;12.13;;;;;;;;;;6320574;28;24429;-84
2024/03/03 00:35:59;;;;;;;15.75;12.68;;;;;;;;;;6324410;28;24477;-84
2024/03/03 00:39:01;;;;;;;17.75;12.32;;;;;;;;;;6321607;28;24427;-83
2024/03/03 00:42:04;;;;;;;16.10;12.27;;;;;;;;;;6319432;28;24626;-83
2024/03/03 00:45:08;;;;;;;16.83;12.52;;;;;;;;;;6322715;28;24418;-84
2024/03/03 00:48:10;;;;;;;17.35;12.77;;;;;;;;;;6324787;28;24852;-84
2024/03/03 00:51:11;;;;;;;16.63;12.75;;;;;;;;;;6328117;28;24437;-84
2024/03/03 00:54:13;;;;;;;16.15;11.95;;;;;;;;;;6322165;28;24430;-83
2024/03/03 00:57:15;;;;;;;17.63;12.45;;;;;;;;;;6321551;28;24414;-82
2024/03/03 01:00:19;;;;;;;16.55;12.18;;;;;;;;;;6318979;28;24418;-84
2024/03/03 01:03:21;;;;;;;17.70;12.63;;;;;;;;;;6329130;28;24426;-82
2024/03/03 01:06:22;;;;;;;18.42;13.00;;;;;;;;;;6327920;28;24424;-84
2024/03/03 01:09:24;;;;;;;17.55;12.23;;;;;;;;;;6323207;28;24429;-84
2024/03/03 01:12:26;;;;;;;16.50;12.60;;;;;;;;;;6320945;28;24448;-83
2024/03/03 01:15:29;;;;;;;16.83;12.27;;;;;;;;;;6324476;28;24499;-83
2024/03/03 01:18:31;;;;;;;16.60;12.35;;;;;;;;;;6320479;28;24919;-83
2024/03/03 01:21:33;;;;;;;17.25;12.55;;;;;;;;;;6326045;28;24498;-84
2024/03/03 01:24:35;;;;;;;17.33;12.43;;;;;;;;;;6326396;28;24798;-84
2024/03/03 01:27:37;;;;;;;18.08;12.77;;;;;;;;;;6323370;28;24679;-83
2024/03/03 01:30:40;;;;;;;17.80;12.68;;;;;;;;;;6317300;28;24844;-84
2024/03/03 01:33:42;;;;;;;16.50;12.07;;;;;;;;;;6318537;28;24478;-83
2024/03/03 01:36:44;;;;;;;19.80;12.68;;;;;;;;;;6319650;28;24427;-83
2024/03/03 01:39:47;;;;;;;17.85;12.63;;;;;;;;;;6319218;28;24502;-84
2024/03/03 01:42:48;;;;;;;18.33;13.13;;;;;;;;;;6323668;28;24426;-84
2024/03/03 01:45:52;;;;;;;18.52;12.35;;;;;;;;;;6325022;28;24503;-84
2024/03/03 01:48:54;;;;;;;18.65;12.52;;;;;;;;;;6321750;28;24422;-83
2024/03/03 01:51:56;;;;;;;18.38;12.55;;;;;;;;;;6323081;28;24434;-83
2024/03/03 01:54:58;;;;;;;17.92;12.23;;;;;;;;;;6322019;28;24442;-83
2024/03/03 01:58:03;;;;;;;17.40;12.43;;;;;;;;;;6317435;28;24852;-85
2024/03/03 02:01:06;;;;;;;17.05;12.07;;;;;;;;;;6309918;28;24422;-82
2024/03/03 02:04:08;;;;;;;15.52;11.10;;;;;;;;;;6318830;28;24454;-86
2024/03/03 02:07:11;;;;;;;16.40;11.95;;;;;;;;;;6322324;28;24485;-84
2024/03/03 02:10:15;;;;;;;16.90;11.68;;;;;;;;;;6322400;28;24832;-84
2024/03/03 02:13:17;;;;;;;17.55;11.73;;;;;;;;;;6321776;28;24513;-85
2024/03/03 02:16:20;;;;;;;16.77;11.52;;;;;;;;;;6324525;28;24510;-84
2024/03/03 02:19:24;;;;;;;15.75;11.57;;;;;;;;;;6321664;28;24457;-84
2024/03/03 02:22:27;;;;;;;17.40;11.93;;;;;;;;;;6318244;28;24410;-83
2024/03/03 02:25:29;;;;;;;16.20;11.53;;;;;;;;;;6321846;28;24439;-84
2024/03/03 02:28:31;;;;;;;17.25;11.98;;;;;;;;;;6325825;28;24546;-84
2024/03/03 02:31:33;;;;;;;17.45;12.00;;;;;;;;;;6327753;28;24505;-85
2024/03/03 02:34:35;;;;;;;16.30;12.10;;;;;;;;;;6316614;28;24522;-85
2024/03/03 02:37:38;;;;;;;19.00;12.50;;;;;;;;;;6321495;28;24399;-84
2024/03/03 02:40:39;;;;;;;17.55;12.43;;;;;;;;;;6322030;28;24525;-86
2024/03/03 02:43:41;;;;;;;15.98;11.82;;;;;;;;;;6319394;28;24422;-84
2024/03/03 02:46:43;;;;;;;18.13;11.82;;;;;;;;;;6318973;28;24690;-86
2024/03/03 02:49:45;;;;;;;19.08;12.80;;;;;;;;;;6324077;28;24425;-85
2024/03/03 02:52:48;;;;;;;20.00;12.35;;;;;;;;;;6324850;28;24417;-85
2024/03/03 02:55:50;;;;;;;17.77;12.80;;;;;;;;;;6320337;28;24633;-86
2024/03/03 02:58:52;;;;;;;25.25;15.90;;;;;;;;;;6325881;28;24421;-84
2024/03/03 03:01:54;;;;;;;46.83;26.85;;;;;;;;;;6325299;28;24428;-88
2024/03/03 03:04:58;;;;;;;44.35;25.40;;;;;;;;;;6322987;28;24615;-82
2024/03/03 03:08:01;;;;;;;30.85;18.65;;;;;;;;;;6320741;28;24415;-84
2024/03/03 03:11:03;;;;;;;104.57;53.20;;;;;;;;;;6323293;28;24503;-86
2024/03/03 03:14:05;;;;;;;53.72;30.15;;;;;;;;;;6324448;28;24540;-85
2024/03/03 03:17:07;;;;;;;35.67;20.65;;;;;;;;;;6332555;28;24459;-85
2024/03/03 03:20:09;;;;;;;34.28;20.00;;;;;;;;;;6329263;28;24805;-84
2024/03/03 03:23:12;;;;;;;20.27;13.63;;;;;;;;;;6317753;28;24494;-85
2024/03/03 03:26:14;;;;;;;18.30;12.75;;;;;;;;;;6321883;28;24432;-83
2024/03/03 03:29:16;;;;;;;19.63;13.18;;;;;;;;;;6326886;28;24418;-82
2024/03/03 03:32:18;;;;;;;19.42;12.70;;;;;;;;;;6320968;28;24518;-83
2024/03/03 03:35:21;;;;;;;19.25;12.75;;;;;;;;;;6328790;28;24411;-82
2024/03/03 03:38:24;;;;;;;20.23;13.07;;;;;;;;;;6329511;28;24448;-86
2024/03/03 03:41:26;;;;;;;18.40;12.43;;;;;;;;;;6332135;28;24420;-82
2024/03/03 03:44:28;;;;;;;19.03;12.03;;;;;;;;;;6330534;28;24501;-83
2024/03/03 03:47:30;;;;;;;19.85;12.63;;;;;;;;;;6324741;28;24425;-84
2024/03/03 03:50:32;;;;;;;18.35;11.90;;;;;;;;;;6332709;28;24513;-84
2024/03/03 03:53:35;;;;;;;18.05;11.45;;;;;;;;;;6332183;28;24421;-84
2024/03/03 03:56:37;;;;;;;17.35;11.85;;;;;;;;;;6328662;28;24434;-85
2024/03/03 03:59:39;;;;;;;19.17;11.18;;;;;;;;;;6330168;28;24517;-84
2024/03/03 04:02:41;;;;;;;16.67;10.40;;;;;;;;;;6330580;28;24463;-84
2024/03/03 04:05:45;;;;;;;16.67;10.65;;;;;;;;;;6321805;28;24415;-86
2024/03/03 04:08:48;;;;;;;15.68;10.52;;;;;;;;;;6326788;28;24529;-84
2024/03/03 04:11:53;;;;;;;15.52;10.23;;;;;;;;;;6325488;28;24521;-86
2024/03/03 04:14:55;;;;;;;15.48;9.90;;;;;;;;;;6324878;28;24427;-83
2024/03/03 04:17:57;;;;;;;19.77;10.00;;;;;;;;;;6329365;28;24437;-84
2024/03/03 04:20:59;;;;;;;14.55;10.07;;;;;;;;;;6323476;28;24422;-85
2024/03/03 04:24:03;;;;;;;13.98;9.35;;;;;;;;;;6319591;28;24422;-84
2024/03/03 04:27:06;;;;;;;13.23;9.40;;;;;;;;;;6323084;28;24589;-84
2024/03/03 04:30:09;;;;;;;13.82;9.10;;;;;;;;;;6323864;28;24415;-84
2024/03/03 04:33:12;;;;;;;13.82;8.40;;;;;;;;;;6316323;28;24614;-84
2024/03/03 04:36:14;;;;;;;13.63;8.70;;;;;;;;;;6322104;28;24657;-85
2024/03/03 04:39:18;;;;;;;12.10;8.20;;;;;;;;;;6321316;28;24429;-85
2024/03/03 04:42:23;;;;;;;12.50;8.57;;;;;;;;;;6322183;28;24460;-84
2024/03/03 04:45:25;;;;;;;12.65;8.30;;;;;;;;;;6323217;28;24422;-85
2024/03/03 04:48:27;;;;;;;11.90;8.07;;;;;;;;;;6322137;28;24445;-85
2024/03/03 04:51:28;;;;;;;10.90;7.32;;;;;;;;;;6325458;28;24422;-85
2024/03/03 04:54:32;;;;;;;10.82;7.50;;;;;;;;;;6324479;28;24430;-85
2024/03/03 04:57:33;;;;;;;11.60;8.20;;;;;;;;;;6328644;28;24411;-84
2024/03/03 05:00:35;;;;;;;12.02;7.35;;;;;;;;;;6323955;28;24429;-85
2024/03/03 05:03:38;;;;;;;10.95;7.38;;;;;;;;;;6321514;28;24422;-84
2024/03/03 05:06:48;;;;;;;10.98;7.53;;;;;;;;;;6331255;28;24422;-81
2024/03/03 05:09:51;;;;;;;9.07;7.07;;;;;;;;;;6320645;28;24431;-85
2024/03/03 05:12:53;;;;;;;10.70;7.38;;;;;;;;;;6323319;28;24535;-84
2024/03/03 05:15:55;;;;;;;10.10;7.03;;;;;;;;;;6323782;28;24497;-83
2024/03/03 05:18:56;;;;;;;9.80;7.03;;;;;;;;;;6329160;28;24480;-85
2024/03/03 05:21:58;;;;;;;9.43;6.70;;;;;;;;;;6325340;28;24424;-85
2024/03/03 05:25:03;;;;;;;8.65;6.82;;;;;;;;;;6331188;28;24419;-84
2024/03/03 05:28:06;;;;;;;10.70;7.05;;;;;;;;;;6321451;28;24852;-85
2024/03/03 05:31:08;;;;;;;9.55;6.72;;;;;;;;;;6326159;28;24429;-84
2024/03/03 05:34:12;;;;;;;10.15;6.68;;;;;;;;;;6325274;28;24839;-85
2024/03/03 05:37:14;;;;;;;10.52;6.82;;;;;;;;;;6321508;28;24472;-85
2024/03/03 05:40:18;;;;;;;8.90;6.65;;;;;;;;;;6323019;28;24491;-84
2024/03/03 05:43:20;;;;;;;8.55;6.60;;;;;;;;;;6325707;28;24918;-83
2024/03/03 05:46:22;;;;;;;7.82;6.22;;;;;;;;;;6326106;28;24427;-84
2024/03/03 05:49:24;;;;;;;10.03;6.50;;;;;;;;;;6321675;28;24647;-84
2024/03/03 05:52:25;;;;;;;9.10;6.35;;;;;;;;;;6323542;28;24413;-83
2024/03/03 05:55:29;;;;;;;7.70;5.88;;;;;;;;;;6317245;28;24461;-83
2024/03/03 05:58:34;;;;;;;7.82;5.90;;;;;;;;;;6311412;28;24426;-84
2024/03/03 06:01:36;;;;;;;10.43;6.43;;;;;;;;;;6316049;28;24504;-84
2024/03/03 06:04:38;;;;;;;10.25;6.53;;;;;;;;;;6321110;28;24430;-84
2024/03/03 06:07:41;;;;;;;9.55;6.55;;;;;;;;;;6316412;28;24450;-83
2024/03/03 06:10:44;;;;;;;8.70;6.75;;;;;;;;;;6317527;28;24411;-83
2024/03/03 06:13:52;;;;;;;10.13;6.75;;;;;;;;;;6321114;28;24496;-86
2024/03/03 06:16:59;;;;;;;10.55;6.80;;;;;;;;;;6321249;28;24475;-83
2024/03/03 06:20:04;;;;;;;8.30;6.30;;;;;;;;;;6334368;28;24440;-83
2024/03/03 06:23:06;;;;;;;11.18;6.70;;;;;;;;;;6317396;28;24433;-84
2024/03/03 06:26:09;;;;;;;8.70;6.53;;;;;;;;;;6318824;28;24498;-83
2024/03/03 06:29:11;;;;;;;8.88;6.28;;;;;;;;;;6323970;28;24805;-83
2024/03/03 06:32:14;;;;;;;10.80;6.57;;;;;;;;;;6319894;28;24584;-86
2024/03/03 06:35:16;;;;;;;10.48;6.22;;;;;;;;;;6322840;28;24525;-86
2024/03/03 06:38:18;;;;;;;9.35;6.38;;;;;;;;;;6324858;28;24525;-85
2024/03/03 06:41:21;;;;;;;10.20;6.90;;;;;;;;;;6320411;28;24490;-84
2024/03/03 06:44:23;;;;;;;8.77;6.40;;;;;;;;;;6325191;28;24463;-84
2024/03/03 06:47:25;;;;;;;12.30;6.60;;;;;;;;;;6324094;28;24425;-84
2024/03/03 06:50:30;;;;;;;7.97;6.10;;;;;;;;;;6322345;28;24439;-85
2024/03/03 06:53:33;;;;;;;10.20;6.07;;;;;;;;;;6324189;28;24882;-85
2024/03/03 06:56:38;;;;;;;9.27;5.78;;;;;;;;;;6316415;28;24804;-84
2024/03/03 06:59:43;;;;;;;8.93;5.90;;;;;;;;;;6317605;28;24429;-83
2024/03/03 07:03:12;;;;;;;8.05;5.20;;;;;;;;;;6320693;28;24429;-86
2024/03/03 07:06:14;;;;;;;10.20;5.70;;;;;;;;;;6320637;28;24517;-86
2024/03/03 07:09:17;;;;;;;8.65;6.03;;;;;;;;;;6321549;28;24419;-84
2024/03/03 07:12:20;;;;;;;8.45;5.93;;;;;;;;;;6321667;28;24429;-83
2024/03/03 07:15:25;;;;;;;8.40;5.95;;;;;;;;;;6316138;28;24501;-84
2024/03/03 07:18:26;;;;;;;9.07;5.53;;;;;;;;;;6320130;28;24414;-84
2024/03/03 07:21:29;;;;;;;7.88;5.70;;;;;;;;;;6314896;28;24432;-85
2024/03/03 07:24:31;;;;;;;8.53;5.47;;;;;;;;;;6321946;28;25735;-83
2024/03/03 07:27:34;;;;;;;8.98;5.57;;;;;;;;;;6319088;28;24610;-84
2024/03/03 07:30:42;;;;;;;8.00;5.43;;;;;;;;;;6320688;28;24528;-85
2024/03/03 07:33:44;;;;;;;8.32;5.60;;;;;;;;;;6318224;28;24428;-85
2024/03/03 07:36:46;;;;;;;11.73;5.60;;;;;;;;;;6314204;28;24438;-84
2024/03/03 07:39:48;;;;;;;10.67;5.30;;;;;;;;;;6317968;28;24493;-84
2024/03/03 07:42:51;;;;;;;7.65;5.28;;;;;;;;;;6315462;28;24426;-85
2024/03/03 07:45:56;;;;;;;6.85;4.93;;;;;;;;;;6321063;28;24430;-84
2024/03/03 07:48:57;;;;;;;8.00;5.40;;;;;;;;;;6328188;28;24416;-83
2024/03/03 07:51:59;;;;;;;8.38;5.13;;;;;;;;;;6323893;28;24717;-83
2024/03/03 07:55:05;;;;;;;7.83;4.80;;;;;;;;;;6326202;28;24426;-85
2024/03/03 07:58:08;;;;;;;6.97;4.65;;;;;;;;;;6324677;28;24825;-84
2024/03/03 08:01:13;;;;;;;8.97;4.60;;;;;;;;;;6328621;28;24428;-83
2024/03/03 08:04:15;;;;;;;7.40;4.53;;;;;;;;;;6323057;28;24441;-82
2024/03/03 08:07:22;;;;;;;7.35;4.90;;;;;;;;;;6325070;28;24456;-82
2024/03/03 08:10:24;;;;;;;7.88;4.38;;;;;;;;;;6317753;28;24419;-82
2024/03/03 08:13:30;;;;;;;7.30;4.40;;;;;;;;;;6322794;28;24421;-82
2024/03/03 08:16:34;;;;;;;6.43;4.20;;;;;;;;;;6324209;28;24430;-83
2024/03/03 08:19:36;;;;;;;6.63;4.00;;;;;;;;;;6323857;28;24610;-82
2024/03/03 08:22:38;;;;;;;6.68;3.90;;;;;;;;;;6324112;28;24419;-83
2024/03/03 08:25:40;;;;;;;6.50;3.80;;;;;;;;;;6324805;28;24432;-82
2024/03/03 08:28:43;;;;;;;5.47;3.53;;;;;;;;;;6322783;28;24822;-83
2024/03/03 08:31:45;;;;;;;61.00;6.85;;;;;;;;;;6321969;28;24441;-85
2024/03/03 08:34:47;;;;;;;5.85;3.20;;;;;;;;;;6327498;28;24407;-85
2024/03/03 08:37:49;;;;;;;5.27;3.30;;;;;;;;;;6323324;28;24420;-85
2024/03/03 08:40:51;;;;;;;5.32;2.65;;;;;;;;;;6322435;28;24437;-83
2024/03/03 08:43:55;;;;;;;5.53;3.10;;;;;;;;;;6326111;28;24432;-86
2024/03/03 08:47:00;;;;;;;5.18;2.80;;;;;;;;;;6327910;28;24468;-85
2024/03/03 08:50:02;;;;;;;5.47;3.10;;;;;;;;;;6333240;28;24418;-85
2024/03/03 08:53:05;;;;;;;5.72;3.20;;;;;;;;;;6325663;28;24845;-85
2024/03/03 08:56:10;;;;;;;5.30;3.00;;;;;;;;;;6326979;28;24515;-87
2024/03/03 08:59:13;;;;;;;6.82;3.63;;;;;;;;;;6322391;28;24506;-85
2024/03/03 09:02:15;;;;;;;8.73;3.20;;;;;;;;;;6321630;28;24414;-84
2024/03/03 09:05:20;;;;;;;5.07;3.00;;;;;;;;;;6321868;28;24426;-84
2024/03/03 09:08:22;;;;;;;5.15;3.03;;;;;;;;;;6320754;28;24662;-83
2024/03/03 09:11:24;;;;;;;6.60;3.07;;;;;;;;;;6321403;28;24437;-82
2024/03/03 09:14:31;;;;;;;6.57;3.10;;;;;;;;;;6320304;28;24437;-84
2024/03/03 09:17:33;;;;;;;5.35;3.10;;;;;;;;;;6318930;28;24514;-84
2024/03/03 09:20:35;;;;;;;6.68;2.75;;;;;;;;;;6324478;28;24448;-86
2024/03/03 09:23:36;;;;;;;5.72;3.20;;;;;;;;;;6320571;28;24615;-85
2024/03/03 09:26:39;;;;;;;7.35;3.03;;;;;;;;;;6323590;28;24823;-85
2024/03/03 09:29:42;;;;;;;4.63;2.50;;;;;;;;;;6322352;28;24465;-85
2024/03/03 09:32:44;;;;;;;6.93;3.00;;;;;;;;;;6321363;28;24425;-86
2024/03/03 09:35:46;;;;;;;4.07;2.45;;;;;;;;;;6316692;28;24436;-83
2024/03/03 09:38:48;;;;;;;4.63;2.47;;;;;;;;;;6317790;28;24618;-84
2024/03/03 09:41:56;;;;;;;5.22;2.22;;;;;;;;;;6324641;28;24936;-84
2024/03/03 09:45:02;;;;;;;6.43;2.63;;;;;;;;;;6318950;28;24429;-85
2024/03/03 09:48:04;;;;;;;5.38;2.65;;;;;;;;;;6319070;28;24429;-83
2024/03/03 09:51:06;;;;;;;4.30;2.45;;;;;;;;;;6320068;28;24837;-83
2024/03/03 09:54:10;;;;;;;5.80;2.53;;;;;;;;;;6328987;28;24430;-84
2024/03/03 09:57:15;;;;;;;4.63;2.50;;;;;;;;;;6326540;28;24433;-84
2024/03/03 10:00:18;;;;;;;5.93;2.20;;;;;;;;;;6323706;28;24441;-84
2024/03/03 10:03:22;;;;;;;6.00;2.70;;;;;;;;;;6321076;28;24486;-84
2024/03/03 10:06:24;;;;;;;4.20;2.40;;;;;;;;;;6324300;28;24809;-83
2024/03/03 10:09:29;;;;;;;5.75;2.65;;;;;;;;;;6318930;28;24429;-84
2024/03/03 10:12:32;;;;;;;3.85;2.20;;;;;;;;;;6320081;28;24522;-86
2024/03/03 10:15:36;;;;;;;4.63;2.35;;;;;;;;;;6321356;28;24449;-85
2024/03/03 10:18:37;;;;;;;5.95;2.22;;;;;;;;;;6321992;28;24906;-84
2024/03/03 10:21:39;;;;;;;4.95;2.72;;;;;;;;;;6315583;28;24618;-84
2024/03/03 10:24:41;;;;;;;3.72;2.67;;;;;;;;;;6326679;28;24419;-85
2024/03/03 10:27:44;;;;;;;5.13;2.30;;;;;;;;;;6320267;28;24843;-84
2024/03/03 10:30:47;;;;;;;5.72;2.35;;;;;;;;;;6319671;28;24653;-83
2024/03/03 10:33:57;;;;;;;6.40;2.70;;;;;;;;;;6321176;28;24479;-82
2024/03/03 10:37:05;;;;;;;5.88;2.53;;;;;;;;;;6320861;28;24430;-85
2024/03/03 10:40:12;;;;;;;4.78;2.30;;;;;;;;;;6290347;28;24502;-83
2024/03/03 10:43:17;;;;;;;4.43;2.00;;;;;;;;;;6319140;28;24431;-83
2024/03/03 10:46:21;;;;;;;4.10;1.83;;;;;;;;;;6316271;28;24490;-83
2024/03/03 10:49:25;;;;;;;7.47;2.40;;;;;;;;;;6321570;28;24434;-83
2024/03/03 10:52:27;;;;;;;6.40;2.10;;;;;;;;;;6319964;28;24494;-83
2024/03/03 10:55:30;;;;;;;4.32;2.20;;;;;;;;;;6319449;28;24793;-84
2024/03/03 10:58:32;;;;;;;4.20;1.88;;;;;;;;;;6316290;28;24505;-84
2024/03/03 11:01:37;;;;;;;5.37;2.37;;;;;;;;;;6320471;28;24650;-84
2024/03/03 11:04:43;;;;;;;7.27;2.00;;;;;;;;;;6318975;28;24424;-83
2024/03/03 11:07:45;;;;;;;4.97;1.80;;;;;;;;;;6317011;28;24494;-85
2024/03/03 11:10:54;;;;;;;2.72;1.77;;;;;;;;;;6320485;28;24417;-85
2024/03/03 11:13:58;;;;;;;6.95;2.08;;;;;;;;;;6321635;28;24429;-84
2024/03/03 11:17:04;;;;;;;6.28;1.75;;;;;;;;;;6321327;28;24414;-85
2024/03/03 11:20:10;;;;;;;5.90;1.90;;;;;;;;;;6326210;28;24430;-84
2024/03/03 11:23:19;;;;;;;5.07;1.90;;;;;;;;;;6332315;28;24481;-85
2024/03/03 11:26:26;;;;;;;6.97;1.88;;;;;;;;;;6321857;28;24418;-83
2024/03/03 11:29:28;;;;;;;6.82;2.10;;;;;;;;;;6325717;28;24428;-84
2024/03/03 11:32:33;;;;;;;3.63;1.80;;;;;;;;;;6328274;28;24423;-83
2024/03/03 11:35:35;;;;;;;3.47;1.75;;;;;;;;;;6328936;28;24490;-84
2024/03/03 11:38:42;;;;;;;3.75;1.92;;;;;;;;;;6319072;28;24430;-84
2024/03/03 11:41:44;;;;;;;4.00;2.10;;;;;;;;;;6325811;28;24418;-84
2024/03/03 11:44:50;;;;;;;5.47;2.20;;;;;;;;;;6322069;28;24427;-83
2024/03/03 11:47:53;;;;;;;9.95;2.50;;;;;;;;;;6322736;28;24425;-83
2024/03/03 11:51:25;;;;;;;3.60;1.83;;;;;;;;;;6320890;28;24429;-83
2024/03/03 11:54:37;;;;;;;4.97;2.00;;;;;;;;;;6328799;28;24414;-82
2024/03/03 11:57:41;;;;;;;4.38;2.00;;;;;;;;;;6326815;28;24439;-85
2024/03/03 12:00:43;;;;;;;5.22;2.13;;;;;;;;;;6327948;28;24429;-85
2024/03/03 12:03:46;;;;;;;4.97;2.20;;;;;;;;;;6331100;28;24434;-84
2024/03/03 12:06:48;;;;;;;3.83;2.00;;;;;;;;;;6324191;28;24529;-84
2024/03/03 12:09:49;;;;;;;4.93;2.00;;;;;;;;;;6322736;28;24421;-84
2024/03/03 12:12:52;;;;;;;5.90;1.90;;;;;;;;;;6323722;28;24429;-82
2024/03/03 12:15:59;;;;;;;5.93;1.70;;;;;;;;;;6325366;28;24430;-84
2024/03/03 12:19:02;;;;;;;3.70;1.75;;;;;;;;;;6319080;28;24461;-83
2024/03/03 12:22:05;;;;;;;7.43;2.22;;;;;;;;;;6320227;28;24502;-82
2024/03/03 12:25:10;;;;;;;3.88;1.88;;;;;;;;;;6321369;28;24433;-84
2024/03/03 12:28:23;;;;;;;3.40;1.87;;;;;;;;;;6321198;28;24707;-85
2024/03/03 12:31:33;;;;;;;4.60;1.83;;;;;;;;;;6319973;28;24414;-83
2024/03/03 12:34:36;;;;;;;4.60;2.00;;;;;;;;;;6318807;28;24415;-85
2024/03/03 12:37:43;;;;;;;3.88;1.95;;;;;;;;;;6322446;28;24450;-84
2024/03/03 12:40:47;;;;;;;6.65;1.98;;;;;;;;;;6323584;28;24478;-85
2024/03/03 12:43:49;;;;;;;3.95;1.85;;;;;;;;;;6328492;28;24410;-85
2024/03/03 12:46:50;;;;;;;6.15;2.00;;;;;;;;;;6329518;28;24677;-83
2024/03/03 12:49:54;;;;;;;6.30;2.15;;;;;;;;;;6324539;28;24437;-86
2024/03/03 12:52:56;;;;;;;4.93;1.63;;;;;;;;;;6325964;28;24417;-85
2024/03/03 12:56:00;;;;;;;5.72;2.10;;;;;;;;;;6322413;28;24476;-84
2024/03/03 12:59:04;;;;;;;6.00;2.30;;;;;;;;;;6321384;28;24497;-84
2024/03/03 13:02:12;;;;;;;4.55;2.25;;;;;;;;;;6318353;28;24493;-85
2024/03/03 13:05:20;;;;;;;5.38;2.60;;;;;;;;;;6321596;28;24444;-84
2024/03/03 13:08:22;;;;;;;7.35;2.90;;;;;;;;;;6319553;28;24665;-83
2024/03/03 13:11:24;;;;;;;6.55;2.70;;;;;;;;;;6321964;28;24458;-82
2024/03/03 13:14:26;;;;;;;9.40;3.00;;;;;;;;;;6323697;28;24928;-84
2024/03/03 13:17:30;;;;;;;8.35;3.13;;;;;;;;;;6322980;28;24622;-84
2024/03/03 13:20:37;;;;;;;9.55;3.17;;;;;;;;;;6319901;28;24879;-83
2024/03/03 13:23:40;;;;;;;7.20;2.75;;;;;;;;;;6324617;28;24426;-84
2024/03/03 13:26:42;;;;;;;8.65;2.92;;;;;;;;;;6319716;28;24437;-84
2024/03/03 13:29:44;;;;;;;8.30;3.08;;;;;;;;;;6320001;28;24436;-84
2024/03/03 13:32:46;;;;;;;7.45;2.88;;;;;;;;;;6321131;28;24793;-84
2024/03/03 13:35:49;;;;;;;6.03;2.67;;;;;;;;;;6320970;28;24470;-84
2024/03/03 13:38:51;;;;;;;6.38;2.70;;;;;;;;;;6316213;28;24717;-83
2024/03/03 13:41:53;;;;;;;6.97;2.90;;;;;;;;;;6317885;28;24429;-83
2024/03/03 13:44:55;;;;;;;6.05;2.90;;;;;;;;;;6315754;28;24433;-83
2024/03/03 13:47:57;;;;;;;6.78;3.00;;;;;;;;;;6320193;28;24426;-83
2024/03/03 13:51:00;;;;;;;5.57;2.83;;;;;;;;;;6320130;28;25194;-83
2024/03/03 13:54:03;;;;;;;5.13;2.60;;;;;;;;;;6321873;28;24472;-83
2024/03/03 13:57:05;;;;;;;6.07;2.88;;;;;;;;;;6321157;28;24429;-83
2024/03/03 14:00:14;;;;;;;6.93;3.10;;;;;;;;;;6322633;28;24436;-83
2024/03/03 14:03:16;;;;;;;7.10;3.00;;;;;;;;;;6321607;28;24426;-84
2024/03/03 14:06:19;;;;;;;5.03;2.85;;;;;;;;;;6322357;28;24422;-84
2024/03/03 14:09:21;;;;;;;7.00;3.20;;;;;;;;;;6322218;28;24425;-83
2024/03/03 14:12:23;;;;;;;7.25;3.47;;;;;;;;;;6321144;28;24419;-85
2024/03/03 14:15:29;;;;;;;5.80;2.92;;;;;;;;;;6320948;28;24437;-83
2024/03/03 14:18:31;;;;;;;6.18;3.25;;;;;;;;;;6321075;28;24534;-81
2024/03/03 14:21:40;;;;;;;6.93;3.30;;;;;;;;;;6325359;28;24586;-85
2024/03/03 14:24:42;;;;;;;11.93;3.35;;;;;;;;;;6322083;28;24436;-82
2024/03/03 14:27:44;;;;;;;29.70;4.57;;;;;;;;;;6315643;28;24917;-82
2024/03/03 14:30:46;;;;;;;6.57;3.33;;;;;;;;;;6319303;28;24628;-82
2024/03/03 14:33:51;;;;;;;7.65;3.90;;;;;;;;;;6320846;28;24422;-84
2024/03/03 14:37:00;;;;;;;6.82;3.70;;;;;;;;;;6320270;28;24426;-83
2024/03/03 14:40:03;;;;;;;8.90;3.40;;;;;;;;;;6327383;28;24986;-84
2024/03/03 14:43:05;;;;;;;7.30;3.65;;;;;;;;;;6324058;28;24419;-84
2024/03/03 14:46:10;;;;;;;8.13;3.35;;;;;;;;;;6321544;28;24437;-84
2024/03/03 14:49:12;;;;;;;8.45;3.30;;;;;;;;;;6330329;28;24485;-83
2024/03/03 14:52:15;;;;;;;8.32;3.30;;;;;;;;;;6325716;28;24426;-82
2024/03/03 14:55:17;;;;;;;6.90;2.33;;;;;;;;;;6322899;28;24481;-84
2024/03/03 14:58:19;;;;;;;8.05;2.90;;;;;;;;;;6320182;28;24438;-82
2024/03/03 15:01:21;;;;;;;4.90;2.20;;;;;;;;;;6318005;28;24637;-84
2024/03/03 15:04:23;;;;;;;5.68;2.33;;;;;;;;;;6318228;28;24441;-84
2024/03/03 15:07:26;;;;;;;5.85;2.60;;;;;;;;;;6322706;28;24414;-83
2024/03/03 15:10:29;;;;;;;7.95;2.97;;;;;;;;;;6311681;28;24415;-81
2024/03/03 15:13:31;;;;;;;5.93;3.00;;;;;;;;;;6316199;28;24794;-85
2024/03/03 15:16:33;;;;;;;180.82;89.38;;;;;;;;;;6316176;28;24438;-86
2024/03/03 15:19:35;;;;;;;96.17;44.33;;;;;;;;;;6318679;28;24482;-85
2024/03/03 15:22:38;;;;;;;90.28;43.83;;;;;;;;;;6321787;28;24449;-83
2024/03/03 15:25:40;;;;;;;7.80;3.13;;;;;;;;;;6317068;28;24414;-81
2024/03/03 15:28:41;;;;;;;8.13;3.00;;;;;;;;;;6321879;28;24422;-83
2024/03/03 15:31:43;;;;;;;9.48;3.60;;;;;;;;;;6321061;28;24847;-82
2024/03/03 15:34:45;;;;;;;8.18;3.40;;;;;;;;;;6324109;28;24618;-83
2024/03/03 15:37:48;;;;;;;6.32;2.97;;;;;;;;;;6319395;28;24428;-83
2024/03/03 15:40:50;;;;;;;7.63;3.17;;;;;;;;;;6322277;28;25236;-83
2024/03/03 15:43:52;;;;;;;5.97;3.40;;;;;;;;;;6323198;28;24425;-82
2024/03/03 15:46:53;;;;;;;6.43;2.97;;;;;;;;;;6324295;28;24415;-82
2024/03/03 15:49:55;;;;;;;10.23;3.20;;;;;;;;;;6322165;28;24869;-82
2024/03/03 15:52:58;;;;;;;7.70;2.90;;;;;;;;;;6324422;28;24593;-83
2024/03/03 15:56:00;;;;;;;7.63;2.60;;;;;;;;;;6318008;28;24831;-81
2024/03/03 15:59:03;;;;;;;5.43;2.40;;;;;;;;;;6316523;28;24611;-82
2024/03/03 16:02:07;;;;;;;6.38;2.80;;;;;;;;;;6323235;28;24499;-84
2024/03/03 16:05:09;;;;;;;9.15;3.00;;;;;;;;;;6326421;28;24507;-83
2024/03/03 16:08:14;;;;;;;7.37;2.77;;;;;;;;;;6320671;28;24502;-82
2024/03/03 16:11:16;;;;;;;3.88;2.55;;;;;;;;;;6326995;28;24422;-82
2024/03/03 16:14:20;;;;;;;5.43;2.95;;;;;;;;;;6321158;28;24525;-84
2024/03/03 16:17:22;;;;;;;5.07;2.47;;;;;;;;;;6327977;28;24419;-84
2024/03/03 16:20:30;;;;;;;7.78;2.55;;;;;;;;;;6330619;28;24501;-82
2024/03/03 16:23:34;;;;;;;7.13;2.13;;;;;;;;;;6328732;28;24556;-82
2024/03/03 16:26:36;;;;;;;6.20;2.10;;;;;;;;;;6328247;28;24450;-82
2024/03/03 16:29:39;;;;;;;5.25;2.20;;;;;;;;;;6301567;28;24533;-82
2024/03/03 16:32:41;;;;;;;6.13;2.20;;;;;;;;;;6316912;28;24433;-82
2024/03/03 16:35:44;;;;;;;5.80;2.10;;;;;;;;;;6325664;28;24431;-82
2024/03/03 16:38:47;;;;;;;4.83;2.30;;;;;;;;;;6324177;28;25332;-82
2024/03/03 16:41:54;;;;;;;4.95;2.25;;;;;;;;;;6322378;28;24422;-82
2024/03/03 16:45:05;;;;;;;5.82;2.20;;;;;;;;;;6322866;28;24843;-84
2024/03/03 16:48:08;;;;;;;6.40;1.98;;;;;;;;;;6319763;28;24484;-82
2024/03/03 16:51:10;;;;;;;6.88;2.33;;;;;;;;;;6316883;28;24668;-83
2024/03/03 16:54:13;;;;;;;7.38;2.75;;;;;;;;;;6320746;28;24471;-82
2024/03/03 16:57:15;;;;;;;6.03;2.30;;;;;;;;;;6321303;28;24490;-82
2024/03/03 17:00:20;;;;;;;6.38;1.90;;;;;;;;;;6319923;28;24465;-82
2024/03/03 17:03:23;;;;;;;5.28;2.22;;;;;;;;;;6318482;28;24457;-82
2024/03/03 17:06:25;;;;;;;4.93;2.05;;;;;;;;;;6318980;28;24426;-82
2024/03/03 17:09:29;;;;;;;4.93;2.20;;;;;;;;;;6319703;28;24565;-82
2024/03/03 17:12:32;;;;;;;3.97;2.08;;;;;;;;;;6323876;28;24497;-83
2024/03/03 17:15:34;;;;;;;5.30;2.10;;;;;;;;;;6327122;28;24820;-81
2024/03/03 17:18:37;;;;;;;6.70;2.33;;;;;;;;;;6323226;28;24438;-83
2024/03/03 17:21:39;;;;;;;4.55;2.08;;;;;;;;;;6317858;28;24789;-84
2024/03/03 17:24:42;;;;;;;6.17;2.30;;;;;;;;;;6318372;28;25129;-84
2024/03/03 17:27:50;;;;;;;5.93;2.33;;;;;;;;;;6322329;28;24831;-83
2024/03/03 17:30:54;;;;;;;4.30;2.08;;;;;;;;;;6318760;28;24427;-82
2024/03/03 17:33:57;;;;;;;4.38;1.85;;;;;;;;;;6320007;28;20855;-83
2024/03/03 17:36:59;;;;;;;4.50;1.92;;;;;;;;;;6323205;28;24430;-82
2024/03/03 17:40:07;;;;;;;3.70;1.87;;;;;;;;;;6316791;28;24526;-84
2024/03/03 17:43:09;;;;;;;4.28;2.20;;;;;;;;;;6302264;28;24430;-82
2024/03/03 17:46:11;;;;;;;6.93;2.08;;;;;;;;;;6321905;28;24793;-83
2024/03/03 17:49:15;;;;;;;4.30;2.00;;;;;;;;;;6320501;28;24845;-83
2024/03/03 17:52:17;;;;;;;6.15;2.10;;;;;;;;;;6322166;28;24432;-81
2024/03/03 17:55:23;;;;;;;4.03;2.10;;;;;;;;;;6321526;28;24481;-82
2024/03/03 17:58:28;;;;;;;5.10;2.03;;;;;;;;;;6321638;28;24471;-83
2024/03/03 18:01:30;;;;;;;5.45;2.10;;;;;;;;;;6319007;28;24529;-82
2024/03/03 18:04:40;;;;;;;6.13;2.08;;;;;;;;;;6321900;28;24497;-84
2024/03/03 18:07:45;;;;;;;6.45;2.15;;;;;;;;;;6318970;28;24429;-84
2024/03/03 18:10:48;;;;;;;4.50;1.90;;;;;;;;;;6318894;28;24479;-81